Time;durP1;ratioP1;P1;durP2;ratioP2;P2;SDS_P1;SDS_P2;PMS_P1;PMS_P2;Temp;Humidity;BMP_temperature;BMP_pressure;BME280_temperature;BME280_humidity;BME280_pressure;Samples;Min_cycle;Max_cycle;Signal;HPM_P1;HPM_P2
2022/11/16 10:55:35;;;;;;;6.53;0.82;;;19.50;68.90;;;;;;5972534;23;20027;31
2022/11/16 10:58:03;;;;;;;5.03;0.70;;;18.90;73.80;;;;;;4913529;29;20054;-73
2022/11/16 11:00:50;;;;;;;4.78;0.70;;;18.10;75.80;;;;;;4920667;29;20134;-73
2022/11/16 11:03:29;;;;;;;5.22;0.70;;;17.60;82.30;;;;;;4913263;29;20051;-73
2022/11/16 11:05:55;;;;;;;6.40;0.65;;;17.80;76.20;;;;;;4912255;29;20212;-74
2022/11/16 11:08:26;;;;;;;5.80;0.93;;;18.80;70.20;;;;;;4920439;29;20213;-74
2022/11/16 11:11:00;;;;;;;7.38;0.90;;;19.40;66.30;;;;;;4918260;29;20044;-74
2022/11/16 11:13:26;;;;;;;7.20;0.80;;;18.80;67.30;;;;;;4916910;29;20511;-74
2022/11/16 11:16:11;;;;;;;8.65;0.85;;;18.30;71.60;;;;;;4916337;29;20098;-74
2022/11/16 11:18:36;;;;;;;8.73;1.02;;;17.80;72.90;;;;;;4915939;29;20042;-74
2022/11/16 11:21:10;;;;;;;7.40;1.08;;;16.90;70.70;;;;;;4917116;29;20454;-74
2022/11/16 11:24:03;;;;;;;6.43;1.05;;;16.10;76.80;;;;;;4915964;29;20035;-73
2022/11/16 11:26:28;;;;;;;7.50;0.70;;;15.80;84.20;;;;;;4913237;29;20067;-74
2022/11/16 11:28:55;;;;;;;10.85;1.25;;;15.90;81.20;;;;;;4918024;29;20360;-74
2022/11/16 11:31:33;;;;;;;9.13;1.20;;;15.90;85.30;;;;;;4920674;29;20605;-75
2022/11/16 11:34:08;;;;;;;5.53;0.95;;;16.20;85.80;;;;;;4915369;29;20122;-73
2022/11/16 11:36:43;;;;;;;8.55;1.15;;;16.90;77.30;;;;;;4914318;29;20058;-74
2022/11/16 11:39:11;;;;;;;7.28;0.80;;;16.70;81.40;;;;;;4919027;29;20047;-74
2022/11/16 11:41:45;;;;;;;10.80;1.23;;;16.50;82.50;;;;;;4923278;29;20061;-74
2022/11/16 11:44:18;;;;;;;8.75;1.10;;;16.10;84.00;;;;;;4922738;29;20122;-74
2022/11/16 11:46:53;;;;;;;10.50;1.10;;;15.70;83.10;;;;;;4916458;29;20103;-74
2022/11/16 11:49:25;;;;;;;17.13;1.45;;;15.50;87.20;;;;;;4921244;29;20373;-74
2022/11/16 11:51:55;;;;;;;12.60;1.40;;;14.90;82.70;;;;;;4909620;29;20053;-73
2022/11/16 11:54:39;;;;;;;11.98;1.30;;;14.40;87.40;;;;;;4905907;29;20036;-74
2022/11/16 11:57:11;;;;;;;8.00;1.02;;;13.80;90.20;;;;;;4922032;29;20073;-74
2022/11/16 11:59:36;;;;;;;9.55;1.10;;;13.20;91.20;;;;;;4921255;29;20032;-74
2022/11/16 12:05:19;;;;;;;13.50;1.75;;;12.40;94.90;;;;;;5154461;23;20124;-74
2022/11/16 12:07:53;;;;;;;14.90;1.35;;;12.10;95.80;;;;;;4887771;29;20307;-74
2022/11/16 12:10:42;;;;;;;3.60;0.60;;;11.90;96.70;;;;;;4929403;28;20517;-74
2022/11/16 12:13:30;;;;;;;6.43;0.43;;;11.70;94.30;;;;;;4911046;29;20581;-73
2022/11/16 12:16:22;;;;;;;9.93;0.85;;;11.40;96.90;;;;;;4920530;29;20032;-73
2022/11/16 12:19:15;;;;;;;5.63;1.08;;;11.30;97.20;;;;;;4908056;29;20399;-75
2022/11/16 12:22:13;;;;;;;12.43;1.90;;;11.30;98.80;;;;;;4925655;29;20122;-74
2022/11/16 12:25:09;;;;;;;6.78;1.27;;;11.60;99.90;;;;;;4923873;29;20407;-75
2022/11/16 12:28:20;;;;;;;11.60;1.75;;;11.80;99.90;;;;;;3884672;29;10001005;-75
2022/11/16 12:30:57;;;;;;;15.55;1.38;;;11.90;98.40;;;;;;4906493;29;20082;-75
2022/11/16 12:33:46;;;;;;;7.05;1.10;;;11.90;97.60;;;;;;4917442;29;20099;-77
2022/11/16 12:36:32;;;;;;;12.65;1.17;;;12.00;98.60;;;;;;4913595;29;20031;-75
2022/11/16 12:39:21;;;;;;;8.05;1.00;;;12.20;97.70;;;;;;4910544;29;20114;-74
2022/11/16 12:41:58;;;;;;;10.43;1.17;;;12.30;96.70;;;;;;4923915;28;20032;-74
2022/11/16 12:44:48;;;;;;;6.53;1.17;;;12.20;97.30;;;;;;4914920;29;20063;-74
2022/11/16 12:47:41;;;;;;;6.43;1.20;;;12.20;98.20;;;;;;4916853;29;20574;-74
2022/11/16 12:50:27;;;;;;;5.68;0.95;;;12.20;97.90;;;;;;4919687;29;20582;-74
2022/11/16 12:53:20;;;;;;;5.32;1.00;;;12.10;98.20;;;;;;4922452;29;20028;-74
2022/11/16 12:55:57;;;;;;;5.72;0.90;;;12.20;98.70;;;;;;4920206;29;20494;-73
2022/11/16 12:58:23;;;;;;;7.55;1.10;;;12.20;97.90;;;;;;4923480;29;20479;-73
2022/11/16 13:00:54;;;;;;;10.77;1.13;;;12.30;97.00;;;;;;4924129;29;20042;-75
2022/11/16 13:03:36;;;;;;;;;;;12.20;96.60;;;;;;4924835;29;20040;-76
2022/11/16 13:06:04;;;;;;;8.50;1.50;;;12.20;97.70;;;;;;4924613;28;19938;-76
2022/11/16 13:08:36;;;;;;;14.60;1.83;;;12.00;97.10;;;;;;4919684;29;20202;-75
2022/11/16 13:11:28;;;;;;;9.73;1.20;;;11.90;97.50;;;;;;4914019;29;20466;-75
2022/11/16 13:13:56;;;;;;;;;;;11.70;99.10;;;;;;4922964;29;20039;-75
2022/11/16 13:16:23;;;;;;;11.45;1.48;;;11.50;98.20;;;;;;4918603;29;19922;-75
2022/11/16 13:18:50;;;;;;;14.90;1.88;;;11.40;97.80;;;;;;4923632;29;20114;-75
2022/11/16 13:21:24;;;;;;;10.07;1.60;;;11.30;97.80;;;;;;4914215;29;20397;-76
2022/11/16 13:24:06;;;;;;;13.73;2.17;;;11.30;98.50;;;;;;4926485;29;20098;-74
2022/11/16 13:26:49;;;;;;;11.45;1.70;;;11.20;99.30;;;;;;4923200;29;20059;-75
2022/11/16 13:29:36;;;;;;;13.23;1.60;;;11.20;99.70;;;;;;4925883;29;20147;-75
2022/11/16 13:32:12;;;;;;;12.27;1.50;;;11.10;99.20;;;;;;4921526;29;20373;-75
2022/11/16 13:34:39;;;;;;;10.75;1.70;;;11.10;99.90;;;;;;4921293;29;20445;-76
2022/11/16 13:37:37;;;;;;;19.10;2.10;;;11.10;99.90;;;;;;4926292;28;20024;-75
2022/11/16 13:40:05;;;;;;;21.83;2.40;;;11.20;99.90;;;;;;4910744;29;20086;-74
2022/11/16 13:42:58;;;;;;;15.48;2.40;;;11.20;99.90;;;;;;4917476;29;20079;-75
2022/11/16 13:45:36;;;;;;;15.52;2.60;;;11.20;99.90;;;;;;4920590;29;20053;-75
2022/11/16 13:48:23;;;;;;;15.95;2.25;;;11.20;99.50;;;;;;4920644;29;20079;-75
2022/11/16 13:50:54;;;;;;;18.88;2.30;;;11.20;99.90;;;;;;4919204;29;20170;-74
2022/11/16 13:53:32;;;;;;;23.77;2.30;;;11.30;99.90;;;;;;4915578;29;20431;-76
2022/11/16 13:56:03;;;;;;;22.35;2.85;;;11.30;99.40;;;;;;4921150;29;20059;-75
2022/11/16 13:58:30;;;;;;;18.20;2.72;;;11.50;99.90;;;;;;4916772;29;20023;-75
2022/11/16 14:01:09;;;;;;;18.67;2.30;;;11.50;99.90;;;;;;4920459;29;20046;-75
2022/11/16 14:03:45;;;;;;;16.15;2.60;;;11.60;99.20;;;;;;4916390;29;20044;-73
2022/11/16 14:06:22;;;;;;;16.27;2.47;;;11.60;98.40;;;;;;4921000;29;20058;-75
2022/11/16 14:08:52;;;;;;;15.20;1.90;;;11.60;99.30;;;;;;4905909;29;20032;-74
2022/11/16 14:11:30;;;;;;;17.98;2.08;;;11.70;99.00;;;;;;4916063;29;20035;-74
2022/11/16 14:13:57;;;;;;;11.25;1.33;;;11.80;97.60;;;;;;4920544;29;20031;-74
2022/11/16 14:16:23;;;;;;;19.77;2.05;;;11.80;99.00;;;;;;4914710;29;20073;-75
2022/11/16 14:18:57;;;;;;;29.15;2.42;;;11.70;98.70;;;;;;4916872;28;20316;-74
2022/11/16 14:22:00;;;;;;;32.10;3.63;;;11.80;97.80;;;;;;4920662;29;20170;-74
2022/11/16 14:24:49;;;;;;;22.15;2.85;;;11.70;98.90;;;;;;4921476;29;20164;-74
2022/11/16 14:27:29;;;;;;;21.77;2.50;;;11.80;99.40;;;;;;4920552;29;20040;-74
2022/11/16 14:29:59;;;;;;;21.83;3.70;;;11.80;99.00;;;;;;4571699;29;10000846;-75
2022/11/16 14:32:29;;;;;;;26.30;3.47;;;11.70;99.00;;;;;;4915147;29;20056;-74
2022/11/16 14:34:57;;;;;;;22.30;2.58;;;11.70;99.60;;;;;;4922348;29;20118;-75
2022/11/16 14:37:28;;;;;;;28.63;3.35;;;11.70;99.30;;;;;;4915106;29;20070;-74
2022/11/16 14:40:00;;;;;;;;;;;11.70;99.40;;;;;;4918001;29;20031;-74
2022/11/16 14:42:30;;;;;;;30.05;2.90;;;11.70;99.20;;;;;;4919610;29;20363;-74
2022/11/16 14:45:12;;;;;;;24.70;2.50;;;11.70;99.90;;;;;;4919247;29;20027;-74
2022/11/16 14:47:38;;;;;;;28.08;2.90;;;11.70;99.70;;;;;;4915809;29;20076;-74
2022/11/16 14:50:17;;;;;;;27.65;3.30;;;11.70;98.80;;;;;;4930578;29;20067;-74
2022/11/16 14:52:46;;;;;;;18.00;2.15;;;11.70;99.90;;;;;;4916858;29;20400;-75
2022/11/16 14:55:20;;;;;;;27.77;2.60;;;11.70;99.00;;;;;;4914050;29;20098;-75
2022/11/16 14:57:46;;;;;;;18.15;2.80;;;11.70;99.20;;;;;;4917894;29;20062;-73
2022/11/16 15:00:24;;;;;;;17.15;2.50;;;11.60;98.90;;;;;;4918459;29;20563;-72
2022/11/16 15:02:53;;;;;;;20.23;2.72;;;11.60;98.20;;;;;;4931988;28;20444;-73
2022/11/16 15:05:26;;;;;;;33.20;3.00;;;11.60;99.20;;;;;;4919174;29;20795;-73
2022/11/16 15:08:00;;;;;;;22.40;2.64;;;11.50;99.40;;;;;;4441495;29;10001017;-73
2022/11/16 15:10:28;;;;;;;26.17;2.90;;;11.50;99.90;;;;;;4238393;29;10000534;-73
2022/11/16 15:12:55;;;;;;;22.13;3.45;;;11.50;98.80;;;;;;4915257;29;20043;-73
2022/11/16 15:15:29;;;;;;;18.85;2.30;;;11.50;99.30;;;;;;4918419;29;20066;-73
2022/11/16 15:17:58;;;;;;;21.55;3.05;;;11.50;99.70;;;;;;4914642;29;20574;-73
2022/11/16 15:20:32;;;;;;;24.48;2.20;;;11.40;99.40;;;;;;4920960;29;20526;-73
2022/11/16 15:22:59;;;;;;;24.88;2.90;;;11.40;98.90;;;;;;4921810;29;20142;-73
2022/11/16 15:25:33;;;;;;;21.48;2.30;;;11.40;99.10;;;;;;4935693;28;20032;-73
2022/11/16 15:28:04;;;;;;;25.75;2.85;;;11.30;99.40;;;;;;4919681;29;20036;-75
2022/11/16 15:30:33;;;;;;;23.35;2.63;;;11.30;99.00;;;;;;4920857;29;20039;-73
2022/11/16 15:33:01;;;;;;;19.05;2.58;;;11.40;98.40;;;;;;4921012;29;20115;-73
2022/11/16 15:35:29;;;;;;;26.13;2.72;;;11.30;99.10;;;;;;4923362;29;20570;-73
2022/11/16 15:38:05;;;;;;;25.98;2.53;;;11.30;98.90;;;;;;4925650;29;20228;-74
2022/11/16 15:40:32;;;;;;;24.23;2.78;;;11.30;99.20;;;;;;4914899;29;20059;-72
2022/11/16 15:42:59;;;;;;;21.15;2.25;;;11.20;99.00;;;;;;4925035;29;20047;-74
2022/11/16 15:45:26;;;;;;;27.70;3.80;;;11.30;98.00;;;;;;4919361;29;20147;-72
2022/11/16 15:47:53;;;;;;;20.70;3.15;;;11.20;99.30;;;;;;4911957;29;20032;-74
2022/11/16 15:50:22;;;;;;;24.13;3.42;;;11.20;98.90;;;;;;4924571;29;20545;-73
2022/11/16 15:52:53;;;;;;;22.20;2.78;;;11.30;98.90;;;;;;4924396;29;20038;-72
2022/11/16 15:55:38;;;;;;;20.92;2.40;;;11.20;98.80;;;;;;4924372;29;20487;-73
2022/11/16 15:58:11;;;;;;;30.40;2.95;;;11.30;99.20;;;;;;4923751;29;20051;-72
2022/11/16 16:00:37;;;;;;;23.90;2.95;;;11.20;99.50;;;;;;4923015;29;20028;-73
2022/11/16 16:03:24;;;;;;;21.98;2.35;;;11.20;99.50;;;;;;4921281;29;20054;-73
2022/11/16 16:05:51;;;;;;;25.42;3.10;;;11.20;99.20;;;;;;4924540;29;20111;-73
2022/11/16 16:08:39;;;;;;;32.88;3.22;;;11.20;98.60;;;;;;4920874;29;20046;-73
2022/11/16 16:11:31;;;;;;;28.38;4.00;;;11.20;99.40;;;;;;4920426;29;20122;-73
2022/11/16 16:14:02;;;;;;;29.17;3.55;;;11.20;99.90;;;;;;4920360;29;20047;-73
2022/11/16 16:16:36;;;;;;;26.08;3.45;;;11.20;99.90;;;;;;4922852;29;20027;-73
2022/11/16 16:19:22;;;;;;;25.65;3.45;;;11.30;99.90;;;;;;4926480;29;20491;-73
2022/11/16 16:21:47;;;;;;;30.52;3.50;;;11.30;99.90;;;;;;4917109;29;20095;-73
2022/11/16 16:24:36;;;;;;;25.08;3.80;;;11.30;99.90;;;;;;4922903;29;20039;-73
2022/11/16 16:27:07;;;;;;;29.17;3.58;;;11.30;99.60;;;;;;4910675;29;20698;-73
2022/11/16 16:29:33;;;;;;;;;;;11.40;99.80;;;;;;4923864;29;20186;-73
2022/11/16 16:31:58;;;;;;;25.48;3.72;;;11.30;99.70;;;;;;4922267;29;20021;-73
2022/11/16 16:34:24;;;;;;;31.20;3.20;;;11.30;99.80;;;;;;4919408;29;20046;-72
2022/11/16 16:36:50;;;;;;;19.75;2.55;;;11.10;99.90;;;;;;4921758;29;20032;-73
2022/11/16 16:39:15;;;;;;;13.00;2.08;;;10.90;99.90;;;;;;4919857;29;20696;-73
2022/11/16 16:41:41;;;;;;;10.13;1.60;;;10.70;99.90;;;;;;4920616;29;20039;-73
2022/11/16 16:44:13;;;;;;;15.43;2.30;;;10.40;99.90;;;;;;4922807;29;20049;-72
2022/11/16 16:46:39;;;;;;;15.52;2.25;;;10.30;99.90;;;;;;4922718;29;20063;-72
2022/11/16 16:49:05;;;;;;;20.33;2.50;;;10.30;99.90;;;;;;4918067;29;20499;-72
2022/11/16 16:51:30;;;;;;;26.35;2.92;;;10.20;99.90;;;;;;4915400;29;20588;-73
2022/11/16 16:53:56;;;;;;;22.35;2.92;;;10.30;99.90;;;;;;4937456;28;20130;-73
2022/11/16 16:56:21;;;;;;;28.80;2.92;;;10.40;99.90;;;;;;4919158;29;20031;-73
2022/11/16 16:58:47;;;;;;;29.35;2.72;;;10.40;99.90;;;;;;4920363;29;20051;-73
2022/11/16 17:01:12;;;;;;;36.03;3.38;;;10.50;99.90;;;;;;4918683;29;20032;-73
2022/11/16 17:03:38;;;;;;;27.00;3.78;;;10.40;99.90;;;;;;4917179;29;20072;-72
2022/11/16 17:06:04;;;;;;;17.77;2.38;;;10.40;99.90;;;;;;4919265;29;20023;-74
2022/11/16 17:08:34;;;;;;;22.52;2.55;;;10.30;99.90;;;;;;4919252;29;20348;-72
2022/11/16 17:11:00;;;;;;;28.85;2.22;;;10.10;99.90;;;;;;4916739;29;20067;-74
2022/11/16 17:13:26;;;;;;;26.50;2.70;;;10.00;99.90;;;;;;4912595;29;20050;-73
2022/11/16 17:15:51;;;;;;;22.38;2.40;;;10.00;99.90;;;;;;4918475;29;20036;-74
2022/11/16 17:18:17;;;;;;;23.13;2.78;;;10.00;99.90;;;;;;4913451;29;20402;-74
2022/11/16 17:20:43;;;;;;;16.70;2.08;;;9.90;99.90;;;;;;4910013;29;20118;-73
2022/11/16 17:23:08;;;;;;;19.48;2.85;;;9.90;99.90;;;;;;4912298;29;20035;-73
2022/11/16 17:25:36;;;;;;;18.00;2.00;;;9.80;99.90;;;;;;4915963;29;20123;-73
2022/11/16 17:28:02;;;;;;;17.38;2.00;;;9.80;99.90;;;;;;4912232;29;20361;-73
2022/11/16 17:30:28;;;;;;;24.35;2.33;;;9.80;99.90;;;;;;4913844;29;20047;-73
2022/11/16 17:32:54;;;;;;;17.17;1.75;;;9.70;99.90;;;;;;4919225;29;20091;-73
2022/11/16 17:35:19;;;;;;;14.95;2.15;;;9.70;99.90;;;;;;4911324;29;20471;-73
2022/11/16 17:37:45;;;;;;;18.88;2.65;;;9.70;99.90;;;;;;4573573;28;10000348;-73
2022/11/16 17:40:11;;;;;;;16.02;2.08;;;9.70;99.90;;;;;;4913025;29;20043;-72
2022/11/16 17:42:37;;;;;;;11.30;1.73;;;9.60;99.90;;;;;;4908238;29;20035;-73
2022/11/16 17:45:03;;;;;;;15.80;1.70;;;9.60;99.90;;;;;;4915721;29;20051;-72
2022/11/16 17:47:34;;;;;;;22.20;2.55;;;9.60;99.90;;;;;;4907474;29;20387;-72
2022/11/16 17:50:00;;;;;;;15.35;2.10;;;9.60;99.90;;;;;;4912630;29;20055;-73
2022/11/16 17:52:26;;;;;;;18.75;2.25;;;9.60;99.90;;;;;;4910487;29;20028;-73
2022/11/16 17:54:51;;;;;;;13.48;1.40;;;9.50;99.90;;;;;;4908093;29;20024;-71
2022/11/16 17:57:17;;;;;;;13.07;1.83;;;9.50;99.90;;;;;;4909904;29;20027;-72
2022/11/16 17:59:43;;;;;;;18.02;2.13;;;9.50;99.90;;;;;;4912463;29;20528;-72
2022/11/16 18:02:12;;;;;;;13.77;2.00;;;9.50;99.90;;;;;;4920741;28;20497;-72
2022/11/16 18:04:37;;;;;;;17.88;2.05;;;9.50;99.90;;;;;;4907113;29;20462;-72
2022/11/16 18:07:03;;;;;;;20.40;2.85;;;9.50;99.90;;;;;;4910188;29;20091;-72
2022/11/16 18:09:29;;;;;;;14.35;1.60;;;9.50;99.90;;;;;;4908913;29;20185;-73
2022/11/16 18:11:54;;;;;;;18.88;1.65;;;9.60;99.90;;;;;;4906220;28;20031;-73
2022/11/16 18:14:20;;;;;;;15.18;1.30;;;9.60;99.90;;;;;;4910005;29;20042;-73
2022/11/16 18:16:46;;;;;;;13.82;2.13;;;9.60;99.90;;;;;;4910900;29;20622;-71
2022/11/16 18:19:17;;;;;;;15.48;1.45;;;9.70;99.90;;;;;;4906648;29;20035;-72
2022/11/16 18:21:43;;;;;;;12.18;1.50;;;9.70;99.90;;;;;;4908416;29;20028;-72
2022/11/16 18:24:09;;;;;;;17.30;2.75;;;9.70;99.90;;;;;;4904553;29;20514;-73
2022/11/16 18:26:35;;;;;;;36.40;4.63;;;9.70;99.90;;;;;;4899348;29;20881;-72
2022/11/16 18:29:01;;;;;;;14.55;1.70;;;9.70;99.90;;;;;;4904621;29;20118;-72
2022/11/16 18:31:28;;;;;;;9.38;1.30;;;9.70;99.90;;;;;;4904365;29;20036;-72
2022/11/16 18:33:54;;;;;;;18.48;1.67;;;9.80;99.90;;;;;;4910072;29;20034;-73
2022/11/16 18:36:21;;;;;;;25.92;2.15;;;9.80;99.90;;;;;;4912739;29;20897;-73
2022/11/16 18:38:46;;;;;;;17.80;1.80;;;9.80;99.90;;;;;;4904842;29;20032;-73
2022/11/16 18:41:12;;;;;;;18.45;2.08;;;9.90;99.90;;;;;;4909412;29;20409;-73
2022/11/16 18:43:39;;;;;;;17.60;1.98;;;10.00;99.90;;;;;;4905692;29;20036;-72
2022/11/16 18:46:04;;;;;;;15.00;1.50;;;10.00;99.90;;;;;;4910451;29;20066;-73
2022/11/16 18:48:31;;;;;;;13.80;2.72;;;10.10;99.90;;;;;;4909056;29;20167;-73
2022/11/16 18:51:01;;;;;;;24.88;2.50;;;10.10;99.90;;;;;;4910001;29;20126;-73
2022/11/16 18:53:28;;;;;;;9.20;1.33;;;10.20;99.90;;;;;;4906532;29;20031;-73
2022/11/16 18:55:54;;;;;;;14.18;1.67;;;10.20;99.90;;;;;;4919303;29;20036;-73
2022/11/16 18:58:20;;;;;;;22.42;2.15;;;10.20;99.90;;;;;;4912611;29;20039;-73
2022/11/16 19:00:46;;;;;;;13.00;2.22;;;10.30;99.90;;;;;;4913666;29;20036;-71
2022/11/16 19:03:12;;;;;;;19.27;1.95;;;10.40;99.90;;;;;;4924511;28;20110;-72
2022/11/16 19:05:37;;;;;;;12.20;1.85;;;10.40;99.90;;;;;;4914130;29;20098;-73
2022/11/16 19:08:03;;;;;;;21.70;1.90;;;10.50;99.90;;;;;;4911475;29;20391;-74
2022/11/16 19:10:29;;;;;;;14.55;1.67;;;10.60;99.90;;;;;;4915008;29;20396;-70
2022/11/16 19:12:54;;;;;;;17.77;1.95;;;10.60;99.90;;;;;;4915674;29;20039;-71
2022/11/16 19:15:20;;;;;;;13.68;1.40;;;10.70;99.90;;;;;;4915054;29;20495;-71
2022/11/16 19:17:46;;;;;;;12.65;1.55;;;10.70;99.90;;;;;;4913055;29;20035;-71
2022/11/16 19:20:12;;;;;;;10.93;1.40;;;10.70;99.90;;;;;;4907857;29;20176;-71
2022/11/16 19:22:37;;;;;;;11.60;1.65;;;10.70;99.90;;;;;;4909010;29;20130;-70
2022/11/16 19:25:03;;;;;;;11.65;1.33;;;10.70;99.90;;;;;;4908708;29;20075;-70
2022/11/16 19:27:31;;;;;;;12.65;1.67;;;10.70;99.90;;;;;;4909734;29;20123;-71
2022/11/16 19:29:56;;;;;;;11.45;1.40;;;10.80;99.90;;;;;;4907904;29;20106;-71
2022/11/16 19:32:22;;;;;;;8.93;0.90;;;10.80;99.90;;;;;;4910923;29;20546;-72
2022/11/16 19:34:48;;;;;;;6.78;1.00;;;10.80;99.90;;;;;;4910105;28;20035;-72
2022/11/16 19:37:14;;;;;;;7.32;0.98;;;10.80;99.90;;;;;;4917593;29;20031;-72
2022/11/16 19:39:39;;;;;;;13.00;1.80;;;10.90;99.90;;;;;;4929866;28;20648;-75
2022/11/16 19:42:05;;;;;;;18.15;2.13;;;10.90;99.90;;;;;;4915740;29;20024;-75
2022/11/16 19:44:31;;;;;;;13.35;1.50;;;10.90;99.90;;;;;;4921821;23;20334;-70
2022/11/16 19:46:58;;;;;;;15.65;2.30;;;11.00;99.90;;;;;;4915431;29;20151;-70
2022/11/16 19:49:24;;;;;;;13.40;1.50;;;11.10;99.90;;;;;;4912875;29;20629;-72
2022/11/16 19:51:49;;;;;;;18.88;1.90;;;11.20;99.90;;;;;;4914766;28;20027;-71
2022/11/16 19:54:15;;;;;;;17.38;1.67;;;11.30;99.90;;;;;;4921324;28;20062;-71
2022/11/16 19:56:42;;;;;;;11.60;1.33;;;11.40;99.90;;;;;;4908966;29;20122;-70
2022/11/16 19:59:07;;;;;;;18.42;1.63;;;11.50;99.90;;;;;;4914392;29;20095;-69
2022/11/16 20:01:33;;;;;;;17.83;2.40;;;11.50;99.90;;;;;;4909504;28;20551;-71
2022/11/16 20:04:01;;;;;;;20.67;2.70;;;11.70;99.90;;;;;;4901856;29;20070;-72
2022/11/16 20:06:37;;;;;;;18.02;2.47;;;11.90;99.90;;;;;;4913673;29;20558;-71
2022/11/16 20:09:07;;;;;;;25.77;3.67;;;12.20;99.90;;;;;;4924983;28;20028;-71
2022/11/16 20:11:34;;;;;;;31.35;3.20;;;12.40;99.90;;;;;;4913921;29;20032;-71
2022/11/16 20:14:02;;;;;;;20.70;2.75;;;12.50;99.90;;;;;;4925821;28;20308;-70
2022/11/16 20:16:29;;;;;;;28.08;2.70;;;12.60;99.90;;;;;;4910578;29;20051;-71
2022/11/16 20:18:55;;;;;;;25.38;2.30;;;12.60;99.90;;;;;;4911708;29;20139;-70
2022/11/16 20:21:29;;;;;;;25.20;2.63;;;12.60;99.90;;;;;;4918862;29;20325;-71
2022/11/16 20:23:56;;;;;;;24.98;2.13;;;12.60;99.90;;;;;;4917260;29;20028;-72
2022/11/16 20:26:23;;;;;;;25.63;2.53;;;12.70;99.90;;;;;;4916551;29;20032;-69
2022/11/16 20:28:51;;;;;;;26.67;3.00;;;12.80;99.90;;;;;;4914120;29;20038;-72
2022/11/16 20:31:19;;;;;;;20.40;2.58;;;12.80;99.90;;;;;;4914884;29;20098;-71
2022/11/16 20:33:58;;;;;;;10.40;1.80;;;12.70;99.90;;;;;;4912177;28;20108;-69
2022/11/16 20:36:26;;;;;;;19.67;2.45;;;12.30;99.90;;;;;;4912968;29;20036;-70
2022/11/16 20:38:52;;;;;;;12.07;1.60;;;12.00;99.90;;;;;;4926170;28;20079;-69
2022/11/16 20:41:23;;;;;;;13.90;2.42;;;11.60;99.90;;;;;;4914305;29;20044;-70
2022/11/16 20:43:53;;;;;;;14.65;1.77;;;11.50;99.90;;;;;;4908847;29;20048;-70
2022/11/16 20:46:21;;;;;;;17.10;1.57;;;11.30;99.90;;;;;;4914558;29;20550;-69
2022/11/16 20:48:47;;;;;;;16.83;1.98;;;11.10;99.90;;;;;;4912074;29;20042;-70
2022/11/16 20:51:15;;;;;;;8.45;1.48;;;11.00;99.90;;;;;;4912133;29;20039;-70
2022/11/16 20:53:41;;;;;;;14.27;1.83;;;10.80;99.90;;;;;;4909380;29;20459;-70
2022/11/16 20:56:09;;;;;;;13.00;1.95;;;10.70;99.90;;;;;;4910842;29;20043;-70
2022/11/16 20:58:35;;;;;;;7.47;1.17;;;10.70;99.90;;;;;;4907641;28;20100;-70
2022/11/16 21:01:06;;;;;;;6.88;1.20;;;10.50;99.90;;;;;;4906844;29;20096;-70
2022/11/16 21:03:32;;;;;;;16.37;4.30;;;10.50;99.90;;;;;;4905852;29;20107;-70
2022/11/16 21:05:57;;;;;;;6.22;2.17;;;10.50;99.90;;;;;;4911152;29;20289;-70
2022/11/16 21:08:24;;;;;;;15.05;3.05;;;10.50;99.90;;;;;;4916792;28;20028;-69
2022/11/16 21:10:50;;;;;;;18.30;3.63;;;10.60;99.90;;;;;;4916413;29;20098;-70
2022/11/16 21:16:10;;;;;;;24.38;4.10;;;10.90;99.90;;;;;;4907514;29;20062;-70
2022/11/16 21:18:37;;;;;;;33.58;5.20;;;11.00;99.90;;;;;;4906419;29;20076;-70
2022/11/16 21:21:05;;;;;;;46.60;5.90;;;11.20;99.90;;;;;;4909065;29;20432;-70
2022/11/16 21:23:33;;;;;;;42.40;5.20;;;11.40;99.90;;;;;;4911530;29;20050;-70
2022/11/16 21:26:11;;;;;;;38.70;5.68;;;11.40;99.90;;;;;;4899008;29;20483;-71
2022/11/16 21:28:38;;;;;;;63.28;6.93;;;11.50;99.90;;;;;;4898086;29;20043;-70
2022/11/16 21:31:18;;;;;;;60.17;8.18;;;11.50;99.90;;;;;;4904851;29;20058;-70
2022/11/16 21:33:44;;;;;;;58.53;6.53;;;11.60;99.90;;;;;;4914491;29;20078;-70
2022/11/16 21:36:15;;;;;;;72.85;7.55;;;11.70;99.90;;;;;;4914025;29;20063;-70
2022/11/16 21:38:41;;;;;;;58.60;9.05;;;11.80;99.90;;;;;;4916257;29;20036;-70
2022/11/16 21:41:09;;;;;;;65.63;9.50;;;11.90;99.90;;;;;;4912110;29;20446;-69
2022/11/16 21:43:35;;;;;;;62.30;9.45;;;11.90;99.90;;;;;;4921027;28;20048;-71
2022/11/16 21:46:04;;;;;;;62.33;6.70;;;12.00;99.90;;;;;;4915169;29;20027;-70
2022/11/16 21:48:32;;;;;;;54.67;5.95;;;12.00;99.90;;;;;;4917655;28;20034;-69
2022/11/16 21:51:01;;;;;;;58.85;6.93;;;12.10;99.90;;;;;;4915478;29;20574;-69
2022/11/16 21:53:26;;;;;;;65.72;7.43;;;12.00;99.90;;;;;;4916209;29;20031;-70
2022/11/16 21:55:52;;;;;;;68.72;7.15;;;12.00;99.90;;;;;;4915346;29;20035;-69
2022/11/16 21:58:18;;;;;;;52.92;5.88;;;11.90;99.90;;;;;;4910976;29;20395;-69
2022/11/16 22:00:43;;;;;;;48.47;6.10;;;11.80;99.90;;;;;;4907783;29;20046;-69
2022/11/16 22:03:09;;;;;;;49.03;6.88;;;11.80;99.90;;;;;;4918168;28;20485;-70
2022/11/16 22:08:18;;;;;;;28.08;4.28;;;11.80;99.90;;;;;;4918229;29;20146;-70
2022/11/16 22:10:53;;;;;;;45.42;4.75;;;11.70;99.90;;;;;;4911202;29;20486;-69
2022/11/16 22:13:19;;;;;;;34.05;4.70;;;11.70;99.90;;;;;;4917240;29;20035;-70
2022/11/16 22:15:45;;;;;;;51.30;5.95;;;11.70;99.90;;;;;;4911088;29;20283;-70
2022/11/16 22:18:11;;;;;;;47.50;4.75;;;11.70;99.90;;;;;;4910184;29;20035;-70
2022/11/16 22:20:37;;;;;;;43.08;6.38;;;11.70;99.90;;;;;;4919681;29;20364;-70
2022/11/16 22:23:02;;;;;;;57.05;5.13;;;11.70;99.90;;;;;;4919132;29;20109;-70
2022/11/16 22:25:28;;;;;;;50.42;5.00;;;11.70;99.90;;;;;;4916138;29;20020;-70
2022/11/16 22:27:53;;;;;;;43.53;5.88;;;11.80;99.90;;;;;;4923782;28;20455;-70
2022/11/16 22:30:19;;;;;;;50.95;5.30;;;11.90;99.90;;;;;;4923126;28;20166;-70
2022/11/16 22:32:45;;;;;;;50.65;6.00;;;11.90;99.90;;;;;;4930245;29;20035;-70
2022/11/16 22:35:10;;;;;;;44.38;5.15;;;12.00;99.90;;;;;;4926118;29;20502;-70
2022/11/16 22:37:36;;;;;;;55.13;6.13;;;12.00;99.90;;;;;;4928962;29;20038;-70
2022/11/16 22:40:03;;;;;;;47.28;5.63;;;12.00;99.90;;;;;;4937102;28;20439;-70
2022/11/16 22:42:29;;;;;;;39.80;5.10;;;12.10;99.90;;;;;;4921896;29;20055;-69
2022/11/16 22:44:55;;;;;;;32.60;4.65;;;12.00;99.90;;;;;;4929935;28;20399;-69
2022/11/16 22:47:20;;;;;;;41.03;4.32;;;12.00;99.90;;;;;;4931998;28;20043;-69
2022/11/16 22:49:46;;;;;;;36.40;4.93;;;11.90;99.90;;;;;;4935338;28;20670;-69
2022/11/16 22:52:12;;;;;;;37.17;4.43;;;11.90;99.90;;;;;;4925731;29;20031;-68
2022/11/16 22:54:37;;;;;;;37.15;4.78;;;11.90;99.90;;;;;;4919133;29;20562;-68
2022/11/16 22:57:04;;;;;;;48.67;5.30;;;11.90;99.90;;;;;;4918065;29;20031;-68
2022/11/16 22:59:30;;;;;;;53.33;6.22;;;12.00;99.90;;;;;;4940581;28;20031;-68
2022/11/16 23:01:55;;;;;;;49.85;5.43;;;11.90;99.90;;;;;;4931788;28;20035;-69
2022/11/16 23:04:21;;;;;;;51.92;5.70;;;12.00;99.90;;;;;;4923090;29;20032;-69
2022/11/16 23:06:48;;;;;;;55.45;5.55;;;12.00;99.90;;;;;;4933310;28;20035;-68
2022/11/16 23:09:13;;;;;;;52.92;5.13;;;12.00;99.90;;;;;;4932805;28;20027;-69
2022/11/16 23:17:07;;;;;;;41.80;4.45;;;12.10;99.90;;;;;;4938760;28;20046;-69
2022/11/16 23:28:03;;;;;;;42.92;4.35;;;12.10;99.90;;;;;;4937398;28;20035;-69
2022/11/16 23:30:29;;;;;;;51.00;5.22;;;12.10;99.90;;;;;;4925091;28;20046;-69
2022/11/16 23:32:55;;;;;;;47.28;4.88;;;12.10;99.90;;;;;;4938463;28;20050;-69
2022/11/16 23:35:21;;;;;;;46.65;4.53;;;12.10;99.90;;;;;;4927773;28;20078;-69
2022/11/16 23:38:01;;;;;;;58.95;5.68;;;12.20;99.90;;;;;;4929954;29;20070;-69
2022/11/16 23:40:38;;;;;;;40.90;5.85;;;12.20;99.90;;;;;;4937268;28;20039;-69
2022/11/16 23:45:50;;;;;;;40.88;5.13;;;12.20;99.90;;;;;;4934070;28;20077;-70
2022/11/16 23:48:17;;;;;;;28.95;4.00;;;12.20;99.90;;;;;;4936057;28;20055;-70
2022/11/16 23:50:43;;;;;;;32.90;3.85;;;12.20;99.90;;;;;;4936627;28;20040;-69
2022/11/16 23:53:10;;;;;;;36.13;4.07;;;12.20;99.90;;;;;;4935771;28;20120;-69
2022/11/16 23:55:37;;;;;;;33.75;4.32;;;12.10;99.90;;;;;;4929462;29;20057;-69
2022/11/16 23:58:09;;;;;;;33.72;4.20;;;12.10;99.90;;;;;;4931677;28;20034;-69
